Owen Sound, Canada
Current Conditions -  °F | °C
As of 4:00 PM on Friday 24 Oct 2014 (Local Time) from CYVV Reporting Station
Broken Clouds Broken Clouds  
Wind Chill: 55°   Ceiling: 25000
Heat Index: 55°   Visibility: 15mi
Dew Point: 43°   Wind: 9mph
Humidity: 63%   Direction: 260°W
Pressure: 29.94"   Gusts: NA
Location:  44.56°N, 80.94°W
Report Text: CYVV 242000Z 26008KT 15SM FEW100 BKN250 13/06 A2994 RMK AC2CI2SLP146
Loading
Personal Weather Stations






























Interactive Weather Map New forecast layout! Learn more

10-Day Weather Forecast

Advertisements
Track Severe Weather on mobile